createdAt,value
2023-05-14T00:00:34.946Z,21.7297
2023-05-14T00:01:36.789Z,21.7340
2023-05-14T00:02:38.716Z,21.7368
2023-05-14T00:03:40.539Z,21.7397
2023-05-14T00:04:42.294Z,21.7420
2023-05-14T00:05:44.168Z,21.7423
2023-05-14T00:06:45.980Z,21.7421
2023-05-14T00:07:47.823Z,21.7355
2023-05-14T00:08:49.662Z,21.7388
2023-05-14T00:09:51.494Z,21.7423
2023-05-14T00:10:53.361Z,21.7500
2023-05-14T00:11:55.187Z,21.7546
2023-05-14T00:12:57.035Z,21.7537
2023-05-14T00:13:58.897Z,21.7468
2023-05-14T00:15:00.695Z,21.7384
2023-05-14T00:16:02.578Z,21.7383
2023-05-14T00:17:04.402Z,21.7407
2023-05-14T00:18:06.326Z,21.7385
2023-05-14T00:19:08.082Z,21.7409
2023-05-14T00:20:09.935Z,21.7478
2023-05-14T00:21:11.764Z,21.7471
2023-05-14T00:22:13.593Z,21.7461
2023-05-14T00:23:15.434Z,21.7463
2023-05-14T00:24:17.269Z,21.7474
2023-05-14T00:25:19.105Z,21.7485
2023-05-14T00:26:20.988Z,21.7506
2023-05-14T00:27:22.807Z,21.7537
2023-05-14T00:28:24.637Z,21.7526
2023-05-14T00:29:26.478Z,21.7508
2023-05-14T00:30:28.310Z,21.7488
2023-05-14T00:31:30.165Z,21.7484
2023-05-14T00:32:32.033Z,21.7429
2023-05-14T00:33:33.841Z,21.7406
2023-05-14T00:34:35.687Z,21.7392
2023-05-14T00:35:37.509Z,21.7432
2023-05-14T00:36:39.392Z,21.7432
2023-05-14T00:37:41.196Z,21.7433
2023-05-14T00:38:43.051Z,21.7443
2023-05-14T00:39:44.887Z,21.7453
2023-05-14T00:40:46.712Z,21.7451
2023-05-14T00:41:48.563Z,21.7388
2023-05-14T00:42:50.416Z,21.7406
2023-05-14T00:43:52.244Z,21.7476
2023-05-14T00:44:54.119Z,21.7489
2023-05-14T00:45:55.948Z,21.7492
2023-05-14T00:46:57.804Z,21.7476
2023-05-14T00:47:59.721Z,21.7393
2023-05-14T00:49:01.437Z,21.7371
2023-05-14T00:50:03.273Z,21.7392
2023-05-14T00:51:05.159Z,21.7415
2023-05-14T00:52:06.970Z,21.7421
2023-05-14T00:53:08.817Z,21.7416
2023-05-14T00:54:10.638Z,21.7391
2023-05-14T00:55:12.482Z,21.7390
2023-05-14T00:56:14.322Z,21.7385
2023-05-14T00:57:16.193Z,21.7372
2023-05-14T00:58:18.052Z,21.7380
2023-05-14T00:59:19.864Z,21.7388
2023-05-14T01:00:21.867Z,21.7378
2023-05-14T01:01:23.547Z,21.7358
2023-05-14T01:02:25.457Z,21.7393
2023-05-14T01:03:27.405Z,21.7393
2023-05-14T01:04:29.062Z,21.7407
2023-05-14T01:05:30.868Z,21.7371
2023-05-14T01:06:32.707Z,21.7368
2023-05-14T01:07:34.548Z,21.7414
2023-05-14T01:08:36.399Z,21.7432
2023-05-14T01:09:38.251Z,21.7426
2023-05-14T01:10:40.086Z,21.7428
2023-05-14T01:11:41.908Z,21.7465
2023-05-14T01:12:43.754Z,21.7476
2023-05-14T01:13:45.597Z,21.7521
2023-05-14T01:14:47.453Z,21.7561
2023-05-14T01:15:49.302Z,21.7567
2023-05-14T01:16:51.170Z,21.7568
2023-05-14T01:17:52.970Z,21.7570
2023-05-14T01:18:54.897Z,21.7584
2023-05-14T01:19:56.635Z,21.7594
2023-05-14T01:20:58.529Z,21.7573
2023-05-14T01:22:00.335Z,21.7582
2023-05-14T01:23:02.142Z,21.7603
2023-05-14T01:24:04.017Z,21.7604
2023-05-14T01:25:05.837Z,21.7583
2023-05-14T01:26:07.677Z,21.7553
2023-05-14T01:27:09.515Z,21.7579
2023-05-14T01:28:11.361Z,21.7559
2023-05-14T01:29:13.181Z,21.7538
2023-05-14T01:30:15.037Z,21.7511
2023-05-14T01:31:16.895Z,21.7517
2023-05-14T01:32:18.777Z,21.7483
2023-05-14T01:33:20.565Z,21.7453
2023-05-14T01:34:22.391Z,21.7394
2023-05-14T01:35:24.247Z,21.7372
2023-05-14T01:36:26.097Z,21.7419
2023-05-14T01:37:27.934Z,21.7445
2023-05-14T01:38:29.779Z,21.7410
2023-05-14T01:39:31.656Z,21.7370
2023-05-14T01:40:33.487Z,21.7411
2023-05-14T01:41:35.281Z,21.7446
2023-05-14T01:42:37.122Z,21.7446
2023-05-14T01:43:38.986Z,21.7427
2023-05-14T01:44:40.824Z,21.7366
2023-05-14T01:45:42.732Z,21.7320
2023-05-14T01:46:44.496Z,21.7323
2023-05-14T01:47:46.372Z,21.7353
2023-05-14T01:48:48.176Z,21.7344
2023-05-14T01:49:50.027Z,21.7374
2023-05-14T01:50:51.867Z,21.7396
2023-05-14T01:51:53.719Z,21.7414
2023-05-14T01:52:55.546Z,21.7409
2023-05-14T01:53:57.400Z,21.7418
2023-05-14T01:54:59.224Z,21.7388
2023-05-14T01:56:01.053Z,21.7326
2023-05-14T01:57:02.939Z,21.7298
2023-05-14T01:58:04.738Z,21.7262
2023-05-14T01:59:06.574Z,21.7273
2023-05-14T02:00:08.419Z,21.7328
2023-05-14T02:01:10.289Z,21.7341
2023-05-14T02:02:13.048Z,21.7344
2023-05-14T02:03:14.003Z,21.7307
2023-05-14T02:04:15.855Z,21.7318
2023-05-14T02:05:25.162Z,21.7287
2023-05-14T02:06:19.437Z,21.7197
2023-05-14T02:07:21.288Z,21.7205
2023-05-14T02:08:23.147Z,21.7282
2023-05-14T02:09:24.987Z,21.7355
2023-05-14T02:10:34.379Z,21.7382
2023-05-14T02:11:28.681Z,21.7374
2023-05-14T02:12:30.490Z,21.7422
2023-05-14T02:13:32.336Z,21.7448
2023-05-14T02:14:34.192Z,21.7472
2023-05-14T02:15:36.076Z,21.7465
2023-05-14T02:16:37.844Z,21.7454
2023-05-14T02:17:39.733Z,21.7485
2023-05-14T02:18:41.592Z,21.7478
2023-05-14T02:19:43.363Z,21.7444
2023-05-14T02:20:45.196Z,21.7422
2023-05-14T02:21:47.050Z,21.7443
2023-05-14T02:22:48.889Z,21.7472
2023-05-14T02:23:50.730Z,21.7504
2023-05-14T02:24:52.575Z,21.7531
2023-05-14T02:25:54.415Z,21.7477
2023-05-14T02:26:56.234Z,21.7466
2023-05-14T02:27:58.084Z,21.7489
2023-05-14T02:28:59.926Z,21.7494
2023-05-14T02:30:01.795Z,21.7516
2023-05-14T02:31:03.652Z,21.7528
2023-05-14T02:32:05.510Z,21.7547
2023-05-14T02:33:07.418Z,21.7537
2023-05-14T02:34:09.117Z,21.7523
2023-05-14T02:35:10.962Z,21.7535
2023-05-14T02:36:12.802Z,21.7541
2023-05-14T02:37:14.628Z,21.7566
2023-05-14T02:38:16.491Z,21.7557
2023-05-14T02:39:18.334Z,21.7535
2023-05-14T02:40:20.158Z,21.7505
2023-05-14T02:41:21.979Z,21.7488
2023-05-14T02:42:23.826Z,21.7488
2023-05-14T02:43:25.663Z,21.7440
2023-05-14T02:44:27.520Z,21.7367
2023-05-14T02:45:29.337Z,21.7390
2023-05-14T02:46:31.295Z,21.7428
2023-05-14T02:47:33.142Z,21.7473
2023-05-14T02:48:34.921Z,21.7449
2023-05-14T02:49:36.767Z,21.7443
2023-05-14T02:50:38.607Z,21.7396
2023-05-14T02:51:40.430Z,21.7381
2023-05-14T02:52:42.271Z,21.7312
2023-05-14T02:53:44.120Z,21.7307
2023-05-14T02:54:45.951Z,21.7317
2023-05-14T02:55:47.801Z,21.7323
2023-05-14T02:56:49.636Z,21.7280
2023-05-14T02:57:51.454Z,21.7257
2023-05-14T02:58:53.303Z,21.7267
2023-05-14T02:59:55.136Z,21.7232
2023-05-14T03:00:57.003Z,21.7246
2023-05-14T03:01:58.873Z,21.7266
2023-05-14T03:03:00.709Z,21.7312
2023-05-14T03:04:02.472Z,21.7316
2023-05-14T03:05:04.324Z,21.7250
2023-05-14T03:06:06.153Z,21.7226
2023-05-14T03:07:07.990Z,21.7284
2023-05-14T03:08:09.851Z,21.7327
2023-05-14T03:09:11.657Z,21.7274
2023-05-14T03:10:13.508Z,21.7228
2023-05-14T03:11:15.345Z,21.7226
2023-05-14T03:12:17.174Z,21.7251
2023-05-14T03:13:19.015Z,21.7274
2023-05-14T03:14:20.872Z,21.7257
2023-05-14T03:15:22.681Z,21.7237
2023-05-14T03:16:24.546Z,21.7229
2023-05-14T03:17:26.366Z,21.7284
2023-05-14T03:18:28.228Z,21.7333
2023-05-14T03:19:30.044Z,21.7344
2023-05-14T03:20:31.876Z,21.7334
2023-05-14T03:21:33.688Z,21.7345
2023-05-14T03:22:35.528Z,21.7362
2023-05-14T03:23:37.397Z,21.7376
2023-05-14T03:24:39.215Z,21.7427
2023-05-14T03:25:41.056Z,21.7389
2023-05-14T03:26:42.938Z,21.7374
2023-05-14T03:27:44.724Z,21.7374
2023-05-14T03:28:46.552Z,21.7409
2023-05-14T03:29:48.378Z,21.7429
2023-05-14T03:30:50.245Z,21.7448
2023-05-14T03:31:52.068Z,21.7493
2023-05-14T03:32:53.961Z,21.7500
2023-05-14T03:33:55.724Z,21.7474
2023-05-14T03:34:57.559Z,21.7467
2023-05-14T03:35:59.402Z,21.7448
2023-05-14T03:37:01.247Z,21.7411
2023-05-14T03:38:03.080Z,21.7453
2023-05-14T03:39:04.957Z,21.7456
2023-05-14T03:40:06.750Z,21.7504
2023-05-14T03:41:08.579Z,21.7485
2023-05-14T03:42:10.409Z,21.7433
2023-05-14T03:43:12.271Z,21.7412
2023-05-14T03:44:14.107Z,21.7411
2023-05-14T03:45:15.979Z,21.7457
2023-05-14T03:46:17.771Z,21.7503
2023-05-14T03:47:19.607Z,21.7494
2023-05-14T03:48:21.536Z,21.7460
2023-05-14T03:49:23.294Z,21.7480
2023-05-14T03:50:25.354Z,21.7460
2023-05-14T03:51:26.977Z,21.7451
2023-05-14T03:52:28.799Z,21.7467
2023-05-14T03:53:30.646Z,21.7444
2023-05-14T03:54:32.488Z,21.7395
2023-05-14T03:55:34.321Z,21.7438
2023-05-14T03:56:36.172Z,21.7443
2023-05-14T03:57:38.040Z,21.7427
2023-05-14T03:58:39.844Z,21.7443
2023-05-14T03:59:41.701Z,21.7450
2023-05-14T04:00:43.546Z,21.7398
2023-05-14T04:01:45.371Z,21.7402
2023-05-14T04:02:47.311Z,21.7404
2023-05-14T04:03:49.211Z,21.7383
2023-05-14T04:04:50.935Z,21.7362
2023-05-14T04:05:52.734Z,21.7356
2023-05-14T04:06:54.578Z,21.7393
2023-05-14T04:07:56.407Z,21.7426
2023-05-14T04:08:58.251Z,21.7436
2023-05-14T04:10:01.793Z,21.7396
2023-05-14T04:11:01.942Z,21.7306
2023-05-14T04:12:03.788Z,21.7292
2023-05-14T04:13:05.622Z,21.7261
2023-05-14T04:14:07.460Z,21.7244
2023-05-14T04:15:09.288Z,21.7242
2023-05-14T04:16:11.180Z,21.7256
2023-05-14T04:17:12.977Z,21.7270
2023-05-14T04:18:14.849Z,21.7295
2023-05-14T04:19:16.749Z,21.7320
2023-05-14T04:20:18.482Z,21.7328
2023-05-14T04:21:20.314Z,21.7320
2023-05-14T04:22:22.175Z,21.7334
2023-05-14T04:23:23.979Z,21.7339
2023-05-14T04:24:25.810Z,21.7341
2023-05-14T04:25:27.648Z,21.7367
2023-05-14T04:26:29.487Z,21.7325
2023-05-14T04:27:31.341Z,21.7318
2023-05-14T04:28:33.201Z,21.7305
2023-05-14T04:29:35.008Z,21.7317
2023-05-14T04:30:36.846Z,21.7326
2023-05-14T04:31:38.708Z,21.7343
2023-05-14T04:32:40.577Z,21.7363
2023-05-14T04:33:42.364Z,21.7391
2023-05-14T04:34:44.221Z,21.7420
2023-05-14T04:35:46.038Z,21.7480
2023-05-14T04:36:47.872Z,21.7507
2023-05-14T04:37:49.717Z,21.7530
2023-05-14T04:38:51.568Z,21.7549
2023-05-14T04:39:53.392Z,21.7549
2023-05-14T04:40:55.252Z,21.7525
2023-05-14T04:41:57.067Z,21.7511
2023-05-14T04:42:58.903Z,21.7529
2023-05-14T04:44:00.729Z,21.7523
2023-05-14T04:45:02.595Z,21.7518
2023-05-14T04:46:04.453Z,21.7501
2023-05-14T04:47:06.267Z,21.7531
2023-05-14T04:48:08.136Z,21.7503
2023-05-14T04:49:09.924Z,21.7520
2023-05-14T04:50:11.767Z,21.7513
2023-05-14T04:51:13.593Z,21.7456
2023-05-14T04:52:15.449Z,21.7425
2023-05-14T04:53:17.306Z,21.7473
2023-05-14T04:54:19.156Z,21.7516
2023-05-14T04:55:20.966Z,21.7494
2023-05-14T04:56:22.807Z,21.7499
2023-05-14T04:57:24.629Z,21.7483
2023-05-14T04:58:26.476Z,21.7468
2023-05-14T04:59:28.346Z,21.7454
2023-05-14T05:00:30.170Z,21.7486
2023-05-14T05:01:32.028Z,21.7542
2023-05-14T05:02:33.877Z,21.7544
2023-05-14T05:03:35.690Z,21.7524
2023-05-14T05:04:37.496Z,21.7478
2023-05-14T05:05:39.373Z,21.7479
2023-05-14T05:06:41.214Z,21.7484
2023-05-14T05:07:43.016Z,21.7485
2023-05-14T05:08:44.852Z,21.7481
2023-05-14T05:09:46.687Z,21.7502
2023-05-14T05:10:48.553Z,21.7540
2023-05-14T05:11:50.406Z,21.7543
2023-05-14T05:12:52.226Z,21.7570
2023-05-14T05:13:54.045Z,21.7555
2023-05-14T05:14:55.881Z,21.7500
2023-05-14T05:15:57.755Z,21.7479
2023-05-14T05:16:59.569Z,21.7454
2023-05-14T05:18:01.441Z,21.7438
2023-05-14T05:19:03.283Z,21.7456
2023-05-14T05:20:05.070Z,21.7464
2023-05-14T05:21:06.920Z,21.7446
2023-05-14T05:22:08.754Z,21.7443
2023-05-14T05:23:10.575Z,21.7384
2023-05-14T05:24:12.441Z,21.7393
2023-05-14T05:25:14.251Z,21.7398
2023-05-14T05:26:16.107Z,21.7401
2023-05-14T05:27:17.934Z,21.7401
2023-05-14T05:28:19.770Z,21.7414
2023-05-14T05:29:21.594Z,21.7351
2023-05-14T05:30:23.680Z,21.7321
2023-05-14T05:31:25.417Z,21.7306
2023-05-14T05:32:27.113Z,21.7318
2023-05-14T05:33:28.958Z,21.7353
2023-05-14T05:34:30.783Z,21.7385
2023-05-14T05:35:32.625Z,21.7412
2023-05-14T05:36:34.473Z,21.7437
2023-05-14T05:37:36.304Z,21.7445
2023-05-14T05:38:38.142Z,21.7425
2023-05-14T05:39:39.986Z,21.7421
2023-05-14T05:40:41.812Z,21.7380
2023-05-14T05:41:43.653Z,21.7410
2023-05-14T05:42:45.518Z,21.7453
2023-05-14T05:43:47.340Z,21.7406
2023-05-14T05:44:49.176Z,21.7367
2023-05-14T05:45:51.046Z,21.7386
2023-05-14T05:46:52.916Z,21.7354
2023-05-14T05:47:54.719Z,21.7385
2023-05-14T05:48:56.547Z,21.7407
2023-05-14T05:49:58.368Z,21.7448
2023-05-14T05:51:00.212Z,21.7477
2023-05-14T05:52:02.033Z,21.7534
2023-05-14T05:53:03.899Z,21.7539
2023-05-14T05:54:05.735Z,21.7465
2023-05-14T05:55:07.596Z,21.7453
2023-05-14T05:56:09.413Z,21.7413
2023-05-14T05:57:11.260Z,21.7417
2023-05-14T05:58:13.101Z,21.7394
2023-05-14T05:59:14.937Z,21.7435
2023-05-14T06:00:16.761Z,21.7467
2023-05-14T06:01:18.647Z,21.7464
2023-05-14T06:02:20.491Z,21.7460
2023-05-14T06:03:22.376Z,21.7519
2023-05-14T06:04:24.141Z,21.7552
2023-05-14T06:05:25.989Z,21.7556
2023-05-14T06:06:27.805Z,21.7523
2023-05-14T06:07:29.697Z,21.7492
2023-05-14T06:08:31.495Z,21.7478
2023-05-14T06:09:33.342Z,21.7471
2023-05-14T06:10:35.184Z,21.7518
2023-05-14T06:11:37.033Z,21.7550
2023-05-14T06:12:38.866Z,21.7558
2023-05-14T06:13:40.704Z,21.7561
2023-05-14T06:14:42.550Z,21.7539
2023-05-14T06:15:44.369Z,21.7537
2023-05-14T06:16:46.216Z,21.7484
2023-05-14T06:17:48.090Z,21.7474
2023-05-14T06:18:49.945Z,21.7439
2023-05-14T06:19:51.752Z,21.7411
2023-05-14T06:20:53.578Z,21.7444
2023-05-14T06:21:55.427Z,21.7483
2023-05-14T06:22:57.265Z,21.7506
2023-05-14T06:23:59.111Z,21.7519
2023-05-14T06:25:00.965Z,21.7569
2023-05-14T06:26:02.813Z,21.7568
2023-05-14T06:27:04.622Z,21.7601
2023-05-14T06:28:06.470Z,21.7576
2023-05-14T06:29:08.321Z,21.7591
2023-05-14T06:30:10.160Z,21.7601
2023-05-14T06:31:11.993Z,21.7616
2023-05-14T06:32:13.999Z,21.7587
2023-05-14T06:33:15.661Z,21.7585
2023-05-14T06:34:17.519Z,21.7550
2023-05-14T06:35:19.354Z,21.7567
2023-05-14T06:36:21.192Z,21.7587
2023-05-14T06:37:23.012Z,21.7569
2023-05-14T06:38:24.864Z,21.7608
2023-05-14T06:39:26.690Z,21.7625
2023-05-14T06:40:28.560Z,21.7585
2023-05-14T06:41:30.391Z,21.7530
2023-05-14T06:42:32.204Z,21.7518
2023-05-14T06:43:34.043Z,21.7542
2023-05-14T06:44:35.899Z,21.7594
2023-05-14T06:45:37.742Z,21.7587
2023-05-14T06:46:39.567Z,21.7509
2023-05-14T06:47:41.491Z,21.7516
2023-05-14T06:48:43.283Z,21.7550
2023-05-14T06:49:45.160Z,21.7508
2023-05-14T06:50:47.029Z,21.7466
2023-05-14T06:51:48.830Z,21.7474
2023-05-14T06:52:50.677Z,21.7514
2023-05-14T06:53:52.527Z,21.7557
2023-05-14T06:54:54.364Z,21.7580
2023-05-14T06:55:56.210Z,21.7596
2023-05-14T06:56:58.060Z,21.7611
2023-05-14T06:57:59.882Z,21.7588
2023-05-14T06:59:01.729Z,21.7582
2023-05-14T07:00:03.905Z,21.7520
2023-05-14T07:01:05.438Z,21.7525
2023-05-14T07:02:07.269Z,21.7547
2023-05-14T07:03:09.214Z,21.7546
2023-05-14T07:04:11.009Z,21.7503
2023-05-14T07:05:12.778Z,21.7540
2023-05-14T07:06:14.612Z,21.7541
2023-05-14T07:07:16.460Z,21.7529
2023-05-14T07:08:18.312Z,21.7583
2023-05-14T07:09:20.175Z,21.7597
2023-05-14T07:10:22.292Z,21.7597
2023-05-14T07:11:23.816Z,21.7581
2023-05-14T07:12:25.654Z,21.7611
2023-05-14T07:13:28.631Z,21.7544
2023-05-14T07:14:29.346Z,21.7488
2023-05-14T07:15:31.215Z,21.7542
2023-05-14T07:16:33.039Z,21.7572
2023-05-14T07:17:34.883Z,21.7601
2023-05-14T07:18:36.741Z,21.7618
2023-05-14T07:19:38.545Z,21.7660
2023-05-14T07:20:40.379Z,21.7687
2023-05-14T07:21:42.240Z,21.7702
2023-05-14T07:22:44.053Z,21.7697
2023-05-14T07:23:45.917Z,21.7689
2023-05-14T07:24:47.745Z,21.7675
2023-05-14T07:25:49.582Z,21.7691
2023-05-14T07:26:51.429Z,21.7687
2023-05-14T07:27:53.268Z,21.7660
2023-05-14T07:28:55.111Z,21.7602
2023-05-14T07:29:56.927Z,21.7625
2023-05-14T07:30:58.805Z,21.7651
2023-05-14T07:32:00.624Z,21.7616
2023-05-14T07:33:02.497Z,21.7600
2023-05-14T07:34:04.426Z,21.7649
2023-05-14T07:35:06.148Z,21.7591
2023-05-14T07:36:07.965Z,21.7536
2023-05-14T07:37:09.804Z,21.7593
2023-05-14T07:38:11.661Z,21.7594
2023-05-14T07:39:13.502Z,21.7656
2023-05-14T07:40:15.374Z,21.7698
2023-05-14T07:41:17.182Z,21.7684
2023-05-14T07:42:31.734Z,21.7698
2023-05-14T07:43:21.858Z,21.7613
2023-05-14T07:44:22.682Z,21.7624
2023-05-14T07:45:24.522Z,21.7676
2023-05-14T07:46:26.398Z,21.7667
2023-05-14T07:47:28.317Z,21.7665
2023-05-14T07:48:30.081Z,21.7651
2023-05-14T07:49:31.880Z,21.7645
2023-05-14T07:50:33.745Z,21.7658
2023-05-14T07:51:35.569Z,21.7658
2023-05-14T07:52:37.438Z,21.7670
2023-05-14T07:53:39.264Z,21.7697
2023-05-14T07:54:41.086Z,21.7706
2023-05-14T07:55:42.939Z,21.7680
2023-05-14T07:56:44.779Z,21.7703
2023-05-14T07:57:46.625Z,21.7731
2023-05-14T07:58:48.500Z,21.7779
2023-05-14T07:59:50.315Z,21.7778
2023-05-14T08:00:52.131Z,21.7766
2023-05-14T08:01:53.990Z,21.7762
2023-05-14T08:02:56.037Z,21.7791
2023-05-14T08:03:57.699Z,21.7736
2023-05-14T08:04:59.526Z,21.7769
2023-05-14T08:06:01.334Z,21.7783
2023-05-14T08:07:03.171Z,21.7800
2023-05-14T08:08:05.007Z,21.7806
2023-05-14T08:09:06.863Z,21.7805
2023-05-14T08:10:08.718Z,21.7834
2023-05-14T08:11:10.630Z,21.7844
2023-05-14T08:12:12.383Z,21.7833
2023-05-14T08:13:14.216Z,21.7837
2023-05-14T08:14:16.069Z,21.7872
2023-05-14T08:15:17.905Z,21.7880
2023-05-14T08:16:19.799Z,21.7877
2023-05-14T08:17:21.633Z,21.7920
2023-05-14T08:18:23.415Z,21.7932
2023-05-14T08:19:25.264Z,21.7932
2023-05-14T08:20:27.528Z,21.7892
2023-05-14T08:21:28.924Z,21.7858
2023-05-14T08:22:30.765Z,21.7885
2023-05-14T08:23:32.665Z,21.7842
2023-05-14T08:24:34.460Z,21.7811
2023-05-14T08:25:36.306Z,21.7823
2023-05-14T08:26:38.135Z,21.7825
2023-05-14T08:27:39.969Z,21.7854
2023-05-14T08:28:41.816Z,21.7840
2023-05-14T08:29:43.712Z,21.7863
2023-05-14T08:30:45.524Z,21.7879
2023-05-14T08:31:47.322Z,21.7900
2023-05-14T08:32:49.208Z,21.7929
2023-05-14T08:33:51.029Z,21.7943
2023-05-14T08:34:52.854Z,21.7943
2023-05-14T08:35:54.712Z,21.7921
2023-05-14T08:36:56.521Z,21.7956
2023-05-14T08:37:58.383Z,21.7970
2023-05-14T08:39:00.220Z,21.7954
2023-05-14T08:40:02.062Z,21.7917
2023-05-14T08:41:03.916Z,21.7920
2023-05-14T08:42:05.751Z,21.7936
2023-05-14T08:43:07.564Z,21.7957
2023-05-14T08:44:09.419Z,21.7982
2023-05-14T08:45:11.263Z,21.7909
2023-05-14T08:46:13.108Z,21.7967
2023-05-14T08:47:14.934Z,21.8011
2023-05-14T08:48:16.929Z,21.7982
2023-05-14T08:49:18.634Z,21.8010
2023-05-14T08:50:21.924Z,21.8034
2023-05-14T08:51:22.328Z,21.8003
2023-05-14T08:52:24.145Z,21.7962
2023-05-14T08:53:25.993Z,21.7967
2023-05-14T08:54:27.854Z,21.7962
2023-05-14T08:55:29.696Z,21.7914
2023-05-14T08:56:31.531Z,21.7931
2023-05-14T08:57:33.398Z,21.7937
2023-05-14T08:58:35.197Z,21.7956
2023-05-14T08:59:37.058Z,21.7960
2023-05-14T09:00:38.911Z,21.7969
2023-05-14T09:01:40.770Z,21.7934
2023-05-14T09:02:42.643Z,21.7903
2023-05-14T09:03:44.466Z,21.7940
2023-05-14T09:04:46.252Z,21.7943
2023-05-14T09:05:48.104Z,21.7933
2023-05-14T09:06:49.966Z,21.7935
2023-05-14T09:07:51.772Z,21.7968
2023-05-14T09:08:53.622Z,21.8007
2023-05-14T09:09:55.508Z,21.7982
2023-05-14T09:10:57.302Z,21.7956
2023-05-14T09:11:59.133Z,21.7950
2023-05-14T09:13:01.003Z,21.7961
2023-05-14T09:14:02.847Z,21.7986
2023-05-14T09:15:04.655Z,21.8008
2023-05-14T09:16:06.497Z,21.7976
2023-05-14T09:17:08.347Z,21.7959
2023-05-14T09:18:10.250Z,21.7944
2023-05-14T09:19:12.134Z,21.7906
2023-05-14T09:20:13.877Z,21.7864
2023-05-14T09:21:15.715Z,21.7881
2023-05-14T09:22:17.562Z,21.7906
2023-05-14T09:23:19.379Z,21.7904
2023-05-14T09:24:21.224Z,21.7887
2023-05-14T09:25:23.098Z,21.7919
2023-05-14T09:26:24.904Z,21.7964
2023-05-14T09:27:26.746Z,21.7948
2023-05-14T09:28:28.596Z,21.7945
2023-05-14T09:29:30.431Z,21.7935
2023-05-14T09:30:32.281Z,21.7879
2023-05-14T09:31:34.200Z,21.7862
2023-05-14T09:32:36.014Z,21.7891
2023-05-14T09:33:37.791Z,21.7901
2023-05-14T09:34:39.632Z,21.7945
2023-05-14T09:35:41.474Z,21.7929
2023-05-14T09:36:43.309Z,21.7895
2023-05-14T09:37:45.138Z,21.7920
2023-05-14T09:38:46.988Z,21.7903
2023-05-14T09:39:48.821Z,21.7914
2023-05-14T09:40:50.663Z,21.7936
2023-05-14T09:41:52.484Z,21.7961
2023-05-14T09:42:54.352Z,21.7918
2023-05-14T09:43:56.160Z,21.7888
2023-05-14T09:44:58.008Z,21.7895
2023-05-14T09:45:59.856Z,21.7893
2023-05-14T09:47:01.692Z,21.7920
2023-05-14T09:48:03.642Z,21.7932
2023-05-14T09:49:05.392Z,21.7911
2023-05-14T09:50:07.208Z,21.7940
2023-05-14T09:51:09.041Z,21.7952
2023-05-14T09:52:10.860Z,21.7963
2023-05-14T09:53:12.692Z,21.7967
2023-05-14T09:54:14.532Z,21.7959
2023-05-14T09:55:16.412Z,21.7953
2023-05-14T09:56:18.222Z,21.7961
2023-05-14T09:57:20.056Z,21.7906
2023-05-14T09:58:21.883Z,21.7932
2023-05-14T09:59:23.715Z,21.7965
2023-05-14T10:00:25.799Z,21.8022
2023-05-14T10:01:27.444Z,21.8038
2023-05-14T10:02:29.272Z,21.8060
2023-05-14T10:03:31.061Z,21.8055
2023-05-14T10:04:33.015Z,21.8049
2023-05-14T10:05:34.750Z,21.8040
2023-05-14T10:06:36.572Z,21.8047
2023-05-14T10:07:38.460Z,21.8039
2023-05-14T10:08:40.353Z,21.8065
2023-05-14T10:09:42.102Z,21.8083
2023-05-14T10:10:43.938Z,21.8058
2023-05-14T10:11:45.774Z,21.8058
2023-05-14T10:12:47.600Z,21.8084
2023-05-14T10:13:49.470Z,21.8084
2023-05-14T10:14:51.291Z,21.8030
2023-05-14T10:15:53.124Z,21.8000
2023-05-14T10:16:54.980Z,21.7971
2023-05-14T10:17:56.812Z,21.8002
2023-05-14T10:18:58.670Z,21.8010
2023-05-14T10:20:00.492Z,21.7965
2023-05-14T10:21:02.308Z,21.7973
2023-05-14T10:22:04.244Z,21.8025
2023-05-14T10:23:05.960Z,21.8042
2023-05-14T10:24:07.809Z,21.7998
2023-05-14T10:25:09.653Z,21.7973
2023-05-14T10:26:11.494Z,21.7979
2023-05-14T10:27:13.317Z,21.8045
2023-05-14T10:28:15.146Z,21.8076
2023-05-14T10:29:16.968Z,21.8102
2023-05-14T10:30:18.940Z,21.8073
2023-05-14T10:31:20.710Z,21.8032
2023-05-14T10:32:22.482Z,21.8015
2023-05-14T10:33:24.324Z,21.8040
2023-05-14T10:34:26.167Z,21.8006
2023-05-14T10:35:28.014Z,21.7996
2023-05-14T10:36:29.845Z,21.8002
2023-05-14T10:37:31.687Z,21.8010
2023-05-14T10:38:33.505Z,21.7967
2023-05-14T10:39:35.346Z,21.7983
2023-05-14T10:40:37.182Z,21.8004
2023-05-14T10:41:39.020Z,21.8018
2023-05-14T10:42:40.891Z,21.7983
2023-05-14T10:43:42.734Z,21.8009
2023-05-14T10:44:44.519Z,21.8006
2023-05-14T10:45:46.372Z,21.7994
2023-05-14T10:46:48.275Z,21.8031
2023-05-14T10:47:50.055Z,21.8029
2023-05-14T10:48:51.870Z,21.8019
2023-05-14T10:49:53.740Z,21.7985
2023-05-14T10:50:55.588Z,21.7991
2023-05-14T10:51:57.397Z,21.7983
2023-05-14T10:52:59.311Z,21.7941
2023-05-14T10:54:01.129Z,21.7961
2023-05-14T10:55:03.845Z,21.7956
2023-05-14T10:56:04.845Z,21.7924
2023-05-14T10:57:06.651Z,21.7903
2023-05-14T10:58:08.487Z,21.7924
2023-05-14T10:59:10.311Z,21.7956
2023-05-14T11:00:12.144Z,21.7956
2023-05-14T11:01:14.001Z,21.7971
2023-05-14T11:02:16.050Z,21.7978
2023-05-14T11:03:17.698Z,21.7961
2023-05-14T11:04:19.637Z,21.7938
2023-05-14T11:05:21.335Z,21.7899
2023-05-14T11:06:23.181Z,21.7886
2023-05-14T11:07:25.023Z,21.7888
2023-05-14T11:08:28.064Z,21.7899
2023-05-14T11:09:28.692Z,21.7890
2023-05-14T11:10:30.516Z,21.7912
2023-05-14T11:11:32.362Z,21.7914
2023-05-14T11:12:34.204Z,21.7921
2023-05-14T11:13:36.033Z,21.7888
2023-05-14T11:14:37.891Z,21.7870
2023-05-14T11:15:39.711Z,21.7887
2023-05-14T11:16:41.563Z,21.7909
2023-05-14T11:17:43.464Z,21.7942
2023-05-14T11:18:45.249Z,21.7956
2023-05-14T11:19:48.343Z,21.7912
2023-05-14T11:20:48.924Z,21.7899
2023-05-14T11:21:50.781Z,21.7936
2023-05-14T11:22:52.571Z,21.7936
2023-05-14T11:23:54.397Z,21.7918
2023-05-14T11:24:56.230Z,21.7899
2023-05-14T11:25:58.112Z,21.7888
2023-05-14T11:26:59.928Z,21.7895
2023-05-14T11:28:01.761Z,21.7894
2023-05-14T11:29:03.606Z,21.7856
2023-05-14T11:30:05.423Z,21.7852
2023-05-14T11:31:07.265Z,21.7891
2023-05-14T11:32:09.210Z,21.7941
2023-05-14T11:33:11.011Z,21.7941
2023-05-14T11:34:12.818Z,21.7939
2023-05-14T11:35:14.630Z,21.7921
2023-05-14T11:36:16.453Z,21.7919
2023-05-14T11:37:18.287Z,21.7917
2023-05-14T11:38:20.129Z,21.7974
2023-05-14T11:39:21.969Z,21.8010
2023-05-14T11:40:23.931Z,21.8001
2023-05-14T11:41:25.630Z,21.7956
2023-05-14T11:42:27.469Z,21.7983
2023-05-14T11:43:29.477Z,21.8001
2023-05-14T11:44:31.172Z,21.7976
2023-05-14T11:45:33.006Z,21.7918
2023-05-14T11:46:34.965Z,21.7870
2023-05-14T11:47:36.730Z,21.7887
2023-05-14T11:48:38.519Z,21.7926
2023-05-14T11:49:40.347Z,21.7918
2023-05-14T11:50:42.181Z,21.7946
2023-05-14T11:51:44.007Z,21.7964
2023-05-14T11:52:45.883Z,21.7920
2023-05-14T11:53:47.693Z,21.7886
2023-05-14T11:54:49.546Z,21.7887
2023-05-14T11:55:51.371Z,21.7852
2023-05-14T11:56:53.195Z,21.7871
2023-05-14T11:57:55.051Z,21.7858
2023-05-14T11:58:56.940Z,21.7889
2023-05-14T11:59:58.732Z,21.7894
2023-05-14T12:01:00.556Z,21.7890
2023-05-14T12:02:02.452Z,21.7930
2023-05-14T12:03:04.384Z,21.7957
2023-05-14T12:04:06.178Z,21.7956
2023-05-14T12:05:07.942Z,21.7927
2023-05-14T12:06:09.745Z,21.7905
2023-05-14T12:07:11.594Z,21.7905
2023-05-14T12:08:13.476Z,21.7926
2023-05-14T12:09:15.281Z,21.7944
2023-05-14T12:10:17.112Z,21.7976
2023-05-14T12:11:18.964Z,21.7966
2023-05-14T12:12:20.784Z,21.7987
2023-05-14T12:13:22.650Z,21.7990
2023-05-14T12:14:24.490Z,21.7971
2023-05-14T12:15:26.326Z,21.7960
2023-05-14T12:16:28.218Z,21.7987
2023-05-14T12:17:30.019Z,21.7962
2023-05-14T12:18:31.970Z,21.7923
2023-05-14T12:19:33.674Z,21.7867
2023-05-14T12:20:35.517Z,21.7839
2023-05-14T12:21:37.368Z,21.7892
2023-05-14T12:22:39.195Z,21.7879
2023-05-14T12:23:41.062Z,21.7843
2023-05-14T12:24:42.908Z,21.7860
2023-05-14T12:25:44.705Z,21.7820
2023-05-14T12:26:46.558Z,21.7833
2023-05-14T12:27:48.400Z,21.7861